TTJ weather

Tottori Airport
Tottori, Tottori Prefecture, Japan

Public forecast

Using degrees Celsius for public forecast. Weather courtesy of forecast.io.

Current aviation weather report (METAR) for Tottori Airport

Retrieved 2019/10/20 05:00 UTC (33 minutes ago):

RJOR 200500Z 04010KT 9999 FEW030 BKN/// 21/14 Q1019

Closest aviation forecast (TAF) to Tottori Airport

Closest forecast is Miho Yonago Airport, 45.6 nm (84.4 km) W. Retrieved 2019-10-20 00:00 UTC (6 hours ago):

TAF RJOH 192309Z 2000/2106 05010KT 9999 FEW025 SCT045